Mineola, Iowa
Current Conditions -  °F | °C
As of 10:35 PM on Thursday 20 Nov 2014 (Local Time) from KCBF Reporting Station
Clear Clear  
Wind Chill:   Ceiling: Unl
Heat Index: 18°   Visibility: 10mi
Dew Point: 14°   Wind: 6mph
Humidity: 86%   Direction: 120°ESE
Pressure: 30.24"   Gusts: NA
Location:  41.14°N, 95.7°W
Report Text: KCBF 210435Z AUTO 12005KT 10SM CLR M08/M10 A3024 RMK AO2
Loading
Personal Weather Stations






























Interactive Weather Map New forecast layout! Learn more

10-Day Weather Forecast

Advertisements
Track Severe Weather on mobile